createdAt,value
2019-03-25T00:01:25.344Z,8.80
2019-03-25T00:03:53.923Z,8.70
2019-03-25T00:06:22.379Z,8.60
2019-03-25T00:09:04.597Z,8.60
2019-03-25T00:11:21.211Z,8.70
2019-03-25T00:13:49.722Z,8.70
2019-03-25T00:16:18.199Z,8.80
2019-03-25T00:18:46.779Z,8.90
2019-03-25T00:21:15.295Z,9.00
2019-03-25T00:23:43.758Z,9.10
2019-03-25T00:26:12.198Z,9.00
2019-03-25T00:28:40.659Z,8.90
2019-03-25T00:31:09.172Z,9.00
2019-03-25T00:33:37.631Z,9.00
2019-03-25T00:36:06.070Z,9.00
2019-03-25T00:38:34.530Z,8.90
2019-03-25T00:41:03.452Z,8.90
2019-03-25T00:43:31.907Z,9.10
2019-03-25T00:46:00.364Z,9.20
2019-03-25T00:48:28.807Z,9.10
2019-03-25T00:50:57.341Z,9.00
2019-03-25T00:53:25.782Z,8.90
2019-03-25T00:55:54.241Z,8.90
2019-03-25T00:58:22.703Z,8.90
2019-03-25T01:00:51.300Z,9.10
2019-03-25T01:03:19.755Z,9.20
2019-03-25T01:05:48.265Z,9.20
2019-03-25T01:08:16.727Z,9.20
2019-03-25T01:10:45.238Z,9.20
2019-03-25T01:13:13.700Z,9.10
2019-03-25T01:15:42.143Z,9.10
2019-03-25T01:18:16.776Z,9.10
2019-03-25T01:20:40.775Z,9.10
2019-03-25T01:23:09.219Z,9.00
2019-03-25T01:25:37.675Z,8.90
2019-03-25T01:28:06.115Z,8.90
2019-03-25T01:30:34.581Z,8.90
2019-03-25T01:33:03.091Z,8.90
2019-03-25T01:35:31.565Z,9.00
2019-03-25T01:38:00.082Z,9.10
2019-03-25T01:40:28.536Z,9.00
2019-03-25T01:42:57.012Z,8.90
2019-03-25T01:45:25.519Z,8.90
2019-03-25T01:47:53.983Z,8.80
2019-03-25T01:50:22.421Z,8.80
2019-03-25T01:52:50.879Z,8.80
2019-03-25T01:55:19.322Z,8.70
2019-03-25T01:57:47.852Z,8.70
2019-03-25T02:00:16.544Z,8.70
2019-03-25T02:02:45.195Z,8.70
2019-03-25T02:05:13.697Z,8.70
2019-03-25T02:07:42.219Z,8.70
2019-03-25T02:10:11.215Z,8.70
2019-03-25T02:12:39.659Z,8.80
2019-03-25T02:15:08.754Z,8.80
2019-03-25T02:17:37.288Z,8.80
2019-03-25T02:20:07.335Z,8.80
2019-03-25T02:22:35.851Z,8.80
2019-03-25T02:25:05.648Z,8.80
2019-03-25T02:27:34.180Z,8.80
2019-03-25T02:30:02.998Z,8.80
2019-03-25T02:32:31.519Z,8.80
2019-03-25T02:34:59.964Z,8.80
2019-03-25T02:37:28.569Z,8.80
2019-03-25T02:39:57.095Z,8.70
2019-03-25T02:42:25.620Z,8.70
2019-03-25T02:44:54.503Z,8.60
2019-03-25T02:47:23.031Z,8.60
2019-03-25T02:49:51.477Z,8.60
2019-03-25T02:52:19.931Z,8.60
2019-03-25T02:54:48.443Z,8.60
2019-03-25T02:57:16.903Z,8.60
2019-03-25T02:59:45.354Z,8.50
2019-03-25T03:02:13.831Z,8.50
2019-03-25T03:04:42.333Z,8.40
2019-03-25T03:07:10.797Z,8.40
2019-03-25T03:09:39.309Z,8.30
2019-03-25T03:12:07.838Z,8.30
2019-03-25T03:14:36.283Z,8.20
2019-03-25T03:17:04.953Z,8.20
2019-03-25T03:19:33.556Z,8.10
2019-03-25T03:22:02.001Z,8.10
2019-03-25T03:24:30.583Z,8.10
2019-03-25T03:26:59.059Z,8.00
2019-03-25T03:29:27.590Z,7.90
2019-03-25T03:31:56.103Z,7.90
2019-03-25T03:34:24.661Z,7.80
2019-03-25T03:36:53.177Z,7.80
2019-03-25T03:39:21.704Z,7.70
2019-03-25T03:41:50.160Z,7.70
2019-03-25T03:44:18.609Z,7.70
2019-03-25T03:46:47.204Z,7.80
2019-03-25T03:49:15.647Z,7.80
2019-03-25T03:51:44.281Z,7.60
2019-03-25T03:54:12.873Z,7.60
2019-03-25T03:56:41.508Z,7.70
2019-03-25T03:59:10.266Z,7.70
2019-03-25T04:01:38.799Z,7.60
2019-03-25T04:04:07.254Z,7.60
2019-03-25T04:06:35.702Z,7.60
2019-03-25T04:09:05.777Z,7.50
2019-03-25T04:11:34.309Z,7.50
2019-03-25T04:14:02.992Z,7.40
2019-03-25T04:16:31.513Z,7.40
2019-03-25T04:19:00.041Z,7.40
2019-03-25T04:21:28.499Z,7.50
2019-03-25T04:23:56.943Z,7.50
2019-03-25T04:26:29.057Z,7.60
2019-03-25T04:28:55.575Z,7.60
2019-03-25T04:31:24.026Z,7.60
2019-03-25T04:33:52.492Z,7.70
2019-03-25T04:36:27.355Z,7.80
2019-03-25T04:38:55.806Z,7.80
2019-03-25T04:41:24.248Z,7.80
2019-03-25T04:43:54.553Z,7.80
2019-03-25T04:46:22.958Z,7.80
2019-03-25T04:48:51.477Z,7.80
2019-03-25T04:51:20.008Z,7.70
2019-03-25T04:53:48.451Z,7.70
2019-03-25T04:56:16.909Z,7.70
2019-03-25T04:58:45.367Z,7.60
2019-03-25T05:01:13.824Z,7.60
2019-03-25T05:03:42.266Z,7.50
2019-03-25T05:06:10.802Z,7.40
2019-03-25T05:08:39.330Z,7.40
2019-03-25T05:11:07.851Z,7.40
2019-03-25T05:13:36.299Z,7.40
2019-03-25T05:16:04.759Z,7.50
2019-03-25T05:18:33.206Z,7.50
2019-03-25T05:21:01.666Z,7.50
2019-03-25T05:23:30.172Z,7.50
2019-03-25T05:25:58.651Z,7.50
2019-03-25T05:28:27.100Z,7.50
2019-03-25T05:30:55.587Z,7.50
2019-03-25T05:33:24.046Z,7.60
2019-03-25T05:35:52.490Z,7.60
2019-03-25T05:38:20.946Z,7.70
2019-03-25T05:40:49.404Z,7.80
2019-03-25T05:43:17.958Z,7.90
2019-03-25T05:45:46.402Z,7.90
2019-03-25T05:48:14.871Z,8.00
2019-03-25T05:50:43.341Z,8.10
2019-03-25T05:53:11.871Z,8.20
2019-03-25T05:55:40.955Z,8.30
2019-03-25T05:58:09.555Z,8.30
2019-03-25T06:00:38.886Z,8.30
2019-03-25T06:03:07.330Z,8.40
2019-03-25T06:05:35.796Z,8.50
2019-03-25T06:08:04.310Z,8.60
2019-03-25T06:10:32.840Z,8.70
2019-03-25T06:13:01.295Z,8.70
2019-03-25T06:15:29.751Z,8.70
2019-03-25T06:17:58.206Z,8.70
2019-03-25T06:20:26.666Z,8.80
2019-03-25T06:22:55.127Z,8.80
2019-03-25T06:25:23.575Z,8.90
2019-03-25T06:27:52.036Z,9.00
2019-03-25T06:30:22.423Z,9.00
2019-03-25T06:32:50.883Z,9.10
2019-03-25T06:35:19.402Z,9.20
2019-03-25T06:37:47.868Z,9.20
2019-03-25T06:40:16.455Z,9.20
2019-03-25T06:42:44.923Z,9.20
2019-03-25T06:45:14.146Z,9.30
2019-03-25T06:47:42.613Z,9.30
2019-03-25T06:50:11.366Z,9.40
2019-03-25T06:52:39.807Z,9.40
2019-03-25T06:55:09.291Z,9.60
2019-03-25T06:57:38.743Z,9.80
2019-03-25T07:00:09.035Z,9.80
2019-03-25T07:02:37.615Z,9.90
2019-03-25T07:05:06.902Z,10.00
2019-03-25T07:07:35.366Z,10.20
2019-03-25T07:10:05.671Z,10.30
2019-03-25T07:12:34.217Z,10.40
2019-03-25T07:15:02.790Z,10.50
2019-03-25T07:17:31.330Z,10.40
2019-03-25T07:19:59.784Z,10.60
2019-03-25T07:22:28.252Z,10.60
2019-03-25T07:24:56.811Z,10.60
2019-03-25T07:27:36.120Z,10.70
2019-03-25T07:29:55.440Z,10.80
2019-03-25T07:32:23.915Z,10.80
2019-03-25T07:34:52.374Z,11.00
2019-03-25T07:37:20.830Z,11.10
2019-03-25T07:39:49.305Z,11.00
2019-03-25T07:42:17.831Z,10.90
2019-03-25T07:44:46.374Z,11.00
2019-03-25T07:47:14.833Z,11.10
2019-03-25T07:49:43.364Z,11.10
2019-03-25T07:52:11.891Z,11.30
2019-03-25T07:54:40.374Z,11.50
2019-03-25T07:57:08.900Z,11.40
2019-03-25T07:59:37.433Z,11.50
2019-03-25T08:02:06.061Z,11.50
2019-03-25T08:04:34.570Z,11.60
2019-03-25T08:07:03.187Z,11.50
2019-03-25T08:09:31.634Z,11.60
2019-03-25T08:12:00.117Z,11.60
2019-03-25T08:14:28.650Z,11.60
2019-03-25T08:16:57.167Z,11.60
2019-03-25T08:19:25.639Z,11.60
2019-03-25T08:21:54.163Z,11.30
2019-03-25T08:24:22.634Z,11.40
2019-03-25T08:26:51.096Z,11.30
2019-03-25T08:29:19.563Z,11.30
2019-03-25T08:31:48.016Z,11.30
2019-03-25T08:34:16.486Z,11.20
2019-03-25T08:36:45.029Z,11.20
2019-03-25T08:39:13.551Z,11.40
2019-03-25T08:41:42.097Z,11.50
2019-03-25T08:44:10.566Z,11.80
2019-03-25T08:46:39.031Z,11.90
2019-03-25T08:49:07.498Z,12.00
2019-03-25T08:51:35.968Z,12.10
2019-03-25T08:54:04.528Z,12.10
2019-03-25T08:56:32.981Z,12.20
2019-03-25T08:59:01.452Z,12.40
2019-03-25T09:01:30.004Z,12.60
2019-03-25T09:03:58.568Z,13.00
2019-03-25T09:06:27.091Z,13.20
2019-03-25T09:08:55.544Z,13.10
2019-03-25T09:11:24.011Z,13.20
2019-03-25T09:13:52.468Z,13.10
2019-03-25T09:16:20.932Z,13.30
2019-03-25T09:18:49.380Z,13.30
2019-03-25T09:21:17.866Z,13.30
2019-03-25T09:23:46.467Z,13.30
2019-03-25T09:26:15.274Z,13.20
2019-03-25T09:28:43.809Z,13.20
2019-03-25T09:31:13.787Z,13.30
2019-03-25T09:33:42.324Z,13.40
2019-03-25T09:36:10.979Z,13.30
2019-03-25T09:38:39.591Z,13.50
2019-03-25T09:41:08.184Z,13.40
2019-03-25T09:43:36.720Z,13.40
2019-03-25T09:46:05.307Z,13.70
2019-03-25T09:48:33.763Z,13.80
2019-03-25T09:51:02.296Z,13.70
2019-03-25T09:53:30.830Z,13.80
2019-03-25T09:55:59.443Z,14.10
2019-03-25T09:58:36.071Z,14.10
2019-03-25T10:00:58.153Z,14.20
2019-03-25T10:03:26.639Z,14.10
2019-03-25T10:05:55.547Z,14.20
2019-03-25T10:08:24.016Z,14.70
2019-03-25T10:10:52.474Z,14.80
2019-03-25T10:13:20.948Z,15.00
2019-03-25T10:15:49.483Z,14.80
2019-03-25T10:18:18.021Z,14.80
2019-03-25T10:20:46.635Z,15.00
2019-03-25T10:23:15.167Z,15.10
2019-03-25T10:25:43.708Z,14.70
2019-03-25T10:28:12.163Z,14.80
2019-03-25T10:30:40.703Z,14.50
2019-03-25T10:33:09.266Z,14.50
2019-03-25T10:35:37.715Z,14.40
2019-03-25T10:38:06.251Z,14.00
2019-03-25T10:40:34.720Z,13.90
2019-03-25T10:43:03.314Z,13.90
2019-03-25T10:45:31.776Z,14.00
2019-03-25T10:48:00.370Z,14.10
2019-03-25T10:50:28.839Z,14.10
2019-03-25T10:52:57.292Z,14.10
2019-03-25T10:55:25.839Z,14.10
2019-03-25T10:57:54.307Z,14.30
2019-03-25T11:00:23.269Z,14.10
2019-03-25T11:02:51.726Z,14.20
2019-03-25T11:05:20.271Z,14.10
2019-03-25T11:07:48.867Z,14.00
2019-03-25T11:10:17.578Z,13.90
2019-03-25T11:12:46.051Z,14.00
2019-03-25T11:15:14.915Z,14.10
2019-03-25T11:17:43.386Z,14.50
2019-03-25T11:20:12.467Z,15.00
2019-03-25T11:22:41.050Z,15.50
2019-03-25T11:28:15.624Z,15.50
2019-03-25T11:30:52.107Z,15.50
2019-03-25T11:33:21.133Z,15.70
2019-03-25T11:35:49.728Z,16.10
2019-03-25T11:38:18.254Z,16.30
2019-03-25T11:40:47.227Z,16.00
2019-03-25T11:43:15.682Z,15.50
2019-03-25T11:45:44.223Z,15.70
2019-03-25T11:48:12.810Z,15.70
2019-03-25T11:50:41.278Z,15.70
2019-03-25T11:53:09.747Z,15.50
2019-03-25T11:55:38.194Z,15.50
2019-03-25T11:58:06.732Z,15.60
2019-03-25T12:00:35.402Z,15.50
2019-03-25T12:03:03.938Z,15.40
2019-03-25T12:05:32.395Z,15.20
2019-03-25T12:08:00.879Z,15.00
2019-03-25T12:10:29.334Z,14.80
2019-03-25T12:12:57.857Z,14.70
2019-03-25T12:15:26.323Z,14.50
2019-03-25T12:17:54.771Z,14.50
2019-03-25T12:20:23.241Z,14.20
2019-03-25T12:22:51.765Z,14.20
2019-03-25T12:25:20.227Z,14.00
2019-03-25T12:27:48.855Z,13.90
2019-03-25T12:30:17.460Z,13.90
2019-03-25T12:32:45.918Z,13.80
2019-03-25T12:35:14.528Z,13.80
2019-03-25T12:37:43.009Z,13.80
2019-03-25T12:40:11.592Z,13.70
2019-03-25T12:42:40.047Z,13.40
2019-03-25T12:45:09.136Z,13.30
2019-03-25T12:47:37.624Z,13.10
2019-03-25T12:50:09.757Z,12.90
2019-03-25T12:52:38.281Z,12.80
2019-03-25T12:55:07.096Z,12.80
2019-03-25T12:57:35.553Z,12.70
2019-03-25T13:00:06.999Z,12.70
2019-03-25T13:02:35.467Z,12.80
2019-03-25T13:05:05.454Z,12.70
2019-03-25T13:07:33.909Z,12.70
2019-03-25T13:10:02.383Z,12.50
2019-03-25T13:12:30.964Z,12.60
2019-03-25T13:14:59.410Z,12.80
2019-03-25T13:17:27.872Z,13.00
2019-03-25T13:19:56.318Z,13.20
2019-03-25T13:22:24.786Z,13.40
2019-03-25T13:24:53.247Z,13.50
2019-03-25T13:27:21.711Z,13.70
2019-03-25T13:29:52.901Z,13.90
2019-03-25T13:32:20.347Z,13.90
2019-03-25T13:34:48.818Z,14.10
2019-03-25T13:37:17.334Z,14.20
2019-03-25T13:39:45.794Z,14.30
2019-03-25T13:42:14.317Z,14.10
2019-03-25T13:44:42.775Z,14.20
2019-03-25T13:47:11.218Z,14.10
2019-03-25T13:49:39.723Z,13.90
2019-03-25T13:52:08.211Z,13.50
2019-03-25T13:54:36.655Z,13.30
2019-03-25T13:57:05.119Z,13.00
2019-03-25T13:59:33.563Z,12.80
2019-03-25T14:02:02.028Z,12.80
2019-03-25T14:04:30.522Z,12.70
2019-03-25T14:06:58.982Z,12.60
2019-03-25T14:09:27.440Z,12.00
2019-03-25T14:11:56.769Z,11.90
2019-03-25T14:14:25.214Z,12.00
2019-03-25T14:16:53.746Z,11.70
2019-03-25T14:19:22.190Z,11.60
2019-03-25T14:21:50.654Z,11.70
2019-03-25T14:24:19.183Z,11.60
2019-03-25T14:26:47.631Z,11.60
2019-03-25T14:29:16.086Z,11.70
2019-03-25T14:31:44.532Z,11.60
2019-03-25T14:34:14.565Z,11.50
2019-03-25T14:36:43.280Z,11.30
2019-03-25T14:39:11.724Z,11.20
2019-03-25T14:41:40.256Z,11.10
2019-03-25T14:44:08.714Z,11.00
2019-03-25T14:46:37.253Z,10.90
2019-03-25T14:49:05.718Z,10.70
2019-03-25T14:51:34.182Z,10.70
2019-03-25T14:54:02.686Z,10.60
2019-03-25T14:56:31.166Z,10.40
2019-03-25T14:58:59.616Z,10.30
2019-03-25T15:01:28.103Z,10.30
2019-03-25T15:03:56.628Z,10.10
2019-03-25T15:06:25.160Z,10.00
2019-03-25T15:08:53.599Z,9.90
2019-03-25T15:11:22.055Z,9.80
2019-03-25T15:13:50.499Z,9.70
2019-03-25T15:16:19.095Z,9.50
2019-03-25T15:18:47.618Z,9.40
2019-03-25T15:21:16.074Z,9.30
2019-03-25T15:23:44.696Z,9.10
2019-03-25T15:26:13.155Z,9.10
2019-03-25T15:28:41.622Z,9.10
2019-03-25T15:31:10.070Z,9.10
2019-03-25T15:33:38.512Z,9.10
2019-03-25T15:36:07.107Z,9.10
2019-03-25T15:38:35.559Z,9.10
2019-03-25T15:41:04.002Z,9.20
2019-03-25T15:43:32.461Z,9.20
2019-03-25T15:46:01.336Z,9.20
2019-03-25T15:48:29.798Z,9.20
2019-03-25T15:50:58.261Z,9.20
2019-03-25T15:53:28.687Z,9.20
2019-03-25T15:55:56.878Z,9.20
2019-03-25T15:58:26.271Z,9.20
2019-03-25T16:00:55.123Z,9.20
2019-03-25T16:03:23.583Z,9.20
2019-03-25T16:05:52.031Z,9.20
2019-03-25T16:08:20.626Z,9.10
2019-03-25T16:10:51.561Z,9.10
2019-03-25T16:13:19.405Z,9.10
2019-03-25T16:15:47.960Z,9.10
2019-03-25T16:18:34.552Z,9.00
2019-03-25T16:21:03.075Z,9.00
2019-03-25T16:23:31.522Z,9.00
2019-03-25T16:25:59.981Z,9.00
2019-03-25T16:28:28.486Z,9.00
2019-03-25T16:30:59.102Z,8.90
2019-03-25T16:33:27.119Z,8.80
2019-03-25T16:35:55.651Z,8.70
2019-03-25T16:38:24.107Z,8.70
2019-03-25T16:40:52.555Z,8.70
2019-03-25T16:43:21.011Z,8.70
2019-03-25T16:45:49.453Z,8.60
2019-03-25T16:48:17.923Z,8.70
2019-03-25T16:50:46.390Z,8.60
2019-03-25T16:53:14.847Z,8.60
2019-03-25T16:55:43.320Z,8.50
2019-03-25T16:58:11.824Z,8.50
2019-03-25T17:00:40.418Z,8.60
2019-03-25T17:03:08.861Z,8.70
2019-03-25T17:05:37.321Z,8.70
2019-03-25T17:08:05.754Z,8.70
2019-03-25T17:10:34.218Z,8.60
2019-03-25T17:13:02.746Z,8.60
2019-03-25T17:15:31.284Z,8.60
2019-03-25T17:17:59.811Z,8.50
2019-03-25T17:20:28.254Z,8.40
2019-03-25T17:22:56.795Z,8.40
2019-03-25T17:25:25.307Z,8.50
2019-03-25T17:27:53.759Z,8.50
2019-03-25T17:30:22.449Z,8.50
2019-03-25T17:32:50.907Z,8.50
2019-03-25T17:35:19.411Z,8.40
2019-03-25T17:37:47.876Z,8.40
2019-03-25T17:40:16.483Z,8.40
2019-03-25T17:42:44.982Z,8.30
2019-03-25T17:45:13.892Z,8.20
2019-03-25T17:47:42.499Z,8.10
2019-03-25T17:50:11.338Z,8.10
2019-03-25T17:52:39.851Z,8.10
2019-03-25T17:55:08.844Z,8.10
2019-03-25T17:57:37.287Z,8.10
2019-03-25T18:00:11.133Z,8.10
2019-03-25T18:02:39.651Z,8.10
2019-03-25T18:05:09.068Z,8.10
2019-03-25T18:07:37.599Z,8.00
2019-03-25T18:10:07.754Z,8.00
2019-03-25T18:12:38.982Z,7.90
2019-03-25T18:15:11.143Z,7.80
2019-03-25T18:17:39.670Z,7.80
2019-03-25T18:20:17.985Z,7.70
2019-03-25T18:22:39.939Z,7.70
2019-03-25T18:25:09.149Z,7.60
2019-03-25T18:27:37.606Z,7.60
2019-03-25T18:30:09.607Z,7.40
2019-03-25T18:32:38.155Z,7.40
2019-03-25T18:35:08.294Z,7.30
2019-03-25T18:37:36.739Z,7.20
2019-03-25T18:40:05.835Z,7.30
2019-03-25T18:42:34.381Z,7.30
2019-03-25T18:45:03.008Z,7.30
2019-03-25T18:47:31.615Z,7.30
2019-03-25T18:50:01.552Z,7.30
2019-03-25T18:52:30.058Z,7.30
2019-03-25T18:54:58.506Z,7.30
2019-03-25T18:57:27.039Z,7.20
2019-03-25T18:59:55.652Z,7.20
2019-03-25T19:02:24.164Z,7.20
2019-03-25T19:04:52.759Z,7.20
2019-03-25T19:07:21.332Z,7.10
2019-03-25T19:09:52.008Z,7.10
2019-03-25T19:12:20.543Z,7.20
2019-03-25T19:14:49.200Z,7.20
2019-03-25T19:17:17.647Z,6.90
2019-03-25T19:19:46.259Z,6.80
2019-03-25T19:22:14.818Z,6.70
2019-03-25T19:24:43.343Z,6.70
2019-03-25T19:27:11.839Z,6.70
2019-03-25T19:29:40.284Z,6.70
2019-03-25T19:32:08.742Z,6.70
2019-03-25T19:34:37.440Z,6.70
2019-03-25T19:37:05.942Z,6.60
2019-03-25T19:39:34.488Z,6.60
2019-03-25T19:42:03.199Z,6.50
2019-03-25T19:44:31.692Z,6.50
2019-03-25T19:47:00.581Z,6.50
2019-03-25T19:49:29.071Z,6.50
2019-03-25T19:51:57.594Z,6.50
2019-03-25T19:54:26.109Z,6.50
2019-03-25T19:56:54.577Z,6.50
2019-03-25T19:59:23.111Z,6.40
2019-03-25T20:01:51.678Z,6.40
2019-03-25T20:04:20.195Z,6.50
2019-03-25T20:06:48.646Z,6.50
2019-03-25T20:09:17.088Z,6.50
2019-03-25T20:11:45.557Z,6.50
2019-03-25T20:14:14.071Z,6.50
2019-03-25T20:16:42.526Z,6.60
2019-03-25T20:19:11.017Z,6.50
2019-03-25T20:21:39.559Z,6.50
2019-03-25T20:24:08.127Z,6.50
2019-03-25T20:26:36.721Z,6.40
2019-03-25T20:29:06.641Z,6.40
2019-03-25T20:31:35.299Z,6.50
2019-03-25T20:34:10.812Z,6.30
2019-03-25T20:36:33.999Z,6.30
2019-03-25T20:39:02.477Z,6.30
2019-03-25T20:41:31.003Z,6.20
2019-03-25T20:43:59.511Z,6.10
2019-03-25T20:46:28.115Z,6.10
2019-03-25T20:48:56.561Z,6.10
2019-03-25T20:51:25.008Z,6.10
2019-03-25T20:53:53.698Z,6.00
2019-03-25T20:56:22.326Z,6.00
2019-03-25T20:58:50.860Z,5.90
2019-03-25T21:01:19.384Z,5.90
2019-03-25T21:03:47.921Z,5.90
2019-03-25T21:06:16.489Z,5.90
2019-03-25T21:08:44.963Z,5.90
2019-03-25T21:11:13.504Z,5.80
2019-03-25T21:13:42.047Z,5.80
2019-03-25T21:16:10.558Z,5.90
2019-03-25T21:18:39.126Z,5.80
2019-03-25T21:21:07.607Z,5.80
2019-03-25T21:23:36.147Z,5.80
2019-03-25T21:26:04.806Z,5.70
2019-03-25T21:28:33.804Z,5.70
2019-03-25T21:31:02.260Z,5.70
2019-03-25T21:33:31.041Z,5.70
2019-03-25T21:35:59.526Z,5.70
2019-03-25T21:38:27.992Z,5.60
2019-03-25T21:40:56.455Z,5.60
2019-03-25T21:43:25.019Z,5.60
2019-03-25T21:45:53.578Z,5.60
2019-03-25T21:48:22.090Z,5.50
2019-03-25T21:50:50.552Z,5.50
2019-03-25T21:53:19.114Z,5.40
2019-03-25T21:55:47.682Z,5.40
2019-03-25T21:58:16.126Z,5.40
2019-03-25T22:00:44.597Z,5.30
2019-03-25T22:03:13.117Z,5.30
2019-03-25T22:05:41.558Z,5.30
2019-03-25T22:08:10.011Z,5.20
2019-03-25T22:10:38.454Z,5.10
2019-03-25T22:13:06.916Z,5.10
2019-03-25T22:15:35.367Z,5.10
2019-03-25T22:18:03.825Z,5.10
2019-03-25T22:20:32.334Z,5.10
2019-03-25T22:23:00.798Z,5.10
2019-03-25T22:25:29.366Z,5.10
2019-03-25T22:27:57.807Z,5.10
2019-03-25T22:30:26.266Z,5.10
2019-03-25T22:32:54.786Z,5.10
2019-03-25T22:35:23.311Z,5.00
2019-03-25T22:37:51.827Z,5.00
2019-03-25T22:40:20.279Z,5.00
2019-03-25T22:42:48.724Z,4.90
2019-03-25T22:45:20.263Z,4.90
2019-03-25T22:47:48.715Z,4.80
2019-03-25T22:50:28.383Z,4.80
2019-03-25T22:52:57.758Z,4.80
2019-03-25T22:55:28.727Z,4.80
2019-03-25T22:57:57.323Z,4.80
2019-03-25T23:00:27.595Z,4.70
2019-03-25T23:02:56.123Z,4.70
2019-03-25T23:05:24.567Z,4.70
2019-03-25T23:07:53.018Z,4.70
2019-03-25T23:10:21.464Z,4.60
2019-03-25T23:12:49.922Z,4.60
2019-03-25T23:15:18.367Z,4.60
2019-03-25T23:17:46.824Z,4.50
2019-03-25T23:20:15.281Z,4.50
2019-03-25T23:22:43.726Z,4.50
2019-03-25T23:25:12.323Z,4.50
2019-03-25T23:27:40.763Z,4.50
2019-03-25T23:30:09.558Z,4.50
2019-03-25T23:32:38.083Z,4.50
2019-03-25T23:35:06.967Z,4.50
2019-03-25T23:37:35.459Z,4.60
2019-03-25T23:40:08.226Z,4.50
2019-03-25T23:42:36.684Z,4.60
2019-03-25T23:45:06.869Z,4.60
2019-03-25T23:47:35.398Z,4.60
2019-03-25T23:50:05.480Z,4.50
2019-03-25T23:52:33.939Z,4.50
2019-03-25T23:55:02.383Z,4.50
2019-03-25T23:57:30.847Z,4.60
2019-03-25T23:59:59.308Z,4.70
